Time;durP1;ratioP1;P1;durP2;ratioP2;P2;SDS_P1;SDS_P2;PMS_P1;PMS_P2;Temp;Humidity;BMP_temperature;BMP_pressure;BME280_temperature;BME280_humidity;BME280_pressure;Samples;Min_cycle;Max_cycle;Signal;HPM_P1;HPM_P2
2021/10/01 00:02:03;;;;;;;;;;;;;;;21.13;59.61;102128.59;5032287;28;1417;-58
2021/10/01 00:04:30;;;;;;;;;;;;;;;21.14;59.39;102128.50;5037304;28;1601;-62
2021/10/01 00:06:57;;;;;;;;;;;;;;;21.15;58.64;102122.16;5043513;28;1016;-58
2021/10/01 00:09:23;;;;;;;;;;;;;;;21.15;58.57;102121.28;5046057;28;1707;-63
2021/10/01 00:11:51;;;;;;;;;;;;;;;21.14;58.91;102128.50;5032641;28;1596;-63
2021/10/01 00:14:18;;;;;;;;;;;;;;;21.15;58.69;102118.59;5037994;28;1479;-63
2021/10/01 00:16:45;;;;;;;;;;;;;;;21.15;58.46;102118.59;5042673;28;973;-58
2021/10/01 00:19:13;;;;;;;;;;;;;;;21.16;58.61;102128.38;5047866;28;1471;-63
2021/10/01 00:21:40;;;;;;;;;;;;;;;21.14;58.78;102133.88;5046700;28;1973;-63
2021/10/01 00:24:08;;;;;;;;;;;;;;;21.18;58.72;102129.97;5030958;28;1569;-58
2021/10/01 00:26:35;;;;;;;;;;;;;;;21.13;59.65;102128.59;5036763;28;1581;-62
2021/10/01 00:29:01;;;;;;;;;;;;;;;21.12;59.20;102124.22;5045688;28;1448;-58
2021/10/01 00:31:28;;;;;;;;;;;;;;;21.09;59.64;102135.19;5040669;28;1572;-63
2021/10/01 00:33:55;;;;;;;;;;;;;;;21.08;59.36;102134.34;5024221;28;1573;-58
2021/10/01 00:36:23;;;;;;;;;;;;;;;21.10;58.87;102124.31;5034772;28;1008;-58
2021/10/01 00:38:49;;;;;;;;;;;;;;;21.09;59.63;102136.06;5041720;28;1560;-63
2021/10/01 00:41:16;;;;;;;;;;;;;;;21.09;58.48;102132.50;5045361;28;1906;-58
2021/10/01 00:43:42;;;;;;;;;;;;;;;21.08;59.32;102138.88;5041167;28;1569;-60
2021/10/01 00:46:09;;;;;;;;;;;;;;;21.09;58.57;102129.81;5029125;28;1620;-58
2021/10/01 00:48:35;;;;;;;;;;;;;;;21.12;59.33;102143.91;5046232;28;1561;-63
2021/10/01 00:51:02;;;;;;;;;;;;;;;21.06;58.94;102123.69;5046221;28;982;-58
2021/10/01 00:53:31;;;;;;;;;;;;;;;21.09;58.51;102129.81;5038213;28;1736;-58
2021/10/01 00:55:57;;;;;;;;;;;;;;;21.06;58.68;102122.84;5041721;28;1624;-63
2021/10/01 00:58:24;;;;;;;;;;;;;;;21.06;58.53;102122.84;5026008;28;1515;-63
2021/10/01 01:01:02;;;;;;;;;;;;;;;21.06;58.83;102126.38;5025780;28;1977;-63
2021/10/01 01:03:29;;;;;;;;;;;;;;;21.05;59.02;102124.69;5023948;28;1420;-62
2021/10/01 01:06:04;;;;;;;;;;;;;;;21.02;58.51;102114.16;5046616;28;987;-58
2021/10/01 01:08:37;;;;;;;;;;;;;;;21.03;59.19;102132.00;5038106;28;1724;-63
2021/10/01 01:11:07;;;;;;;;;;;;;;;21.02;59.53;102119.53;5033938;28;1506;-58
2021/10/01 01:13:36;;;;;;;;;;;;;;;21.08;59.44;102125.44;5047201;28;1416;-63
2021/10/01 01:16:06;;;;;;;;;;;;;;;21.05;58.44;102119.31;5047500;28;982;-58
2021/10/01 01:18:33;;;;;;;;;;;;;;;21.09;58.29;102119.06;5037211;28;1778;-58
2021/10/01 01:21:01;;;;;;;;;;;;;;;21.08;59.12;102122.75;5035041;28;2005;-58
2021/10/01 01:23:45;;;;;;;;;;;;;;;21.02;59.37;102121.38;5043792;28;1502;-58
2021/10/01 01:26:17;;;;;;;;;;;;;;;21.05;58.63;102119.31;5019635;28;1600;-58
2021/10/01 01:29:02;;;;;;;;;;;;;;;21.01;59.36;102116.97;5033254;28;1542;-58
2021/10/01 01:31:34;;;;;;;;;;;;;;;21.05;58.42;102122.00;5029383;28;1595;-58
2021/10/01 01:34:03;;;;;;;;;;;;;;;21.02;58.54;102119.53;5023491;28;1581;-63
2021/10/01 01:36:30;;;;;;;;;;;;;;;21.05;59.27;102123.84;5024809;28;1040;-58
2021/10/01 01:38:58;;;;;;;;;;;;;;;20.98;59.25;102123.44;5021173;28;1624;-63
2021/10/01 01:41:26;;;;;;;;;;;;;;;20.99;58.75;102105.44;5033724;28;1906;-63
2021/10/01 01:43:55;;;;;;;;;;;;;;;21.00;59.23;102124.16;5044311;28;1588;-57
2021/10/01 01:46:22;;;;;;;;;;;;;;;20.99;58.92;102113.50;5040099;28;1499;-63
2021/10/01 01:48:49;;;;;;;;;;;;;;;20.98;59.31;102126.13;5027609;28;1453;-63
2021/10/01 01:51:18;;;;;;;;;;;;;;;21.03;58.28;102129.31;5044862;28;1057;-58
2021/10/01 01:53:45;;;;;;;;;;;;;;;20.99;58.54;102125.16;5040169;28;1541;-63
2021/10/01 01:56:12;;;;;;;;;;;;;;;20.99;59.01;102124.28;5041272;28;1635;-63
2021/10/01 01:58:39;;;;;;;;;;;;;;;20.98;58.18;102131.50;5027749;28;1695;-63
2021/10/01 02:01:06;;;;;;;;;;;;;;;21.00;58.38;102140.31;5020657;28;1992;-57
2021/10/01 02:03:34;;;;;;;;;;;;;;;20.98;58.38;102136.03;5024215;28;1491;-63
2021/10/01 02:06:02;;;;;;;;;;;;;;;20.96;58.74;102140.66;5025007;28;1072;-58
2021/10/01 02:08:30;;;;;;;;;;;;;;;20.96;59.33;102141.50;5020405;28;1763;-63
2021/10/01 02:10:57;;;;;;;;;;;;;;;20.95;58.51;102137.13;5027969;28;1479;-62
2021/10/01 02:13:24;;;;;;;;;;;;;;;20.98;58.70;102144.94;5042241;28;1616;-58
2021/10/01 02:15:54;;;;;;;;;;;;;;;20.97;58.27;102143.25;5025521;28;1065;-58
2021/10/01 02:18:21;;;;;;;;;;;;;;;20.93;59.04;102136.38;5036183;28;1491;-63
2021/10/01 02:20:49;;;;;;;;;;;;;;;20.96;58.04;102146.03;5041394;28;1906;-58
2021/10/01 02:23:16;;;;;;;;;;;;;;;20.96;58.98;102151.41;5043430;28;1577;-63
2021/10/01 02:28:31;;;;;;;;;;;;;;;20.99;58.95;102160.13;5044667;28;1568;-63
2021/10/01 02:31:00;;;;;;;;;;;;;;;20.96;59.09;102151.41;5044911;28;1583;-58
2021/10/01 02:33:30;;;;;;;;;;;;;;;20.97;58.25;102151.31;5017078;28;1993;-63
2021/10/01 02:35:57;;;;;;;;;;;;;;;20.97;58.30;102147.72;5045202;28;1076;-57
2021/10/01 02:38:23;;;;;;;;;;;;;;;20.94;58.82;102148.84;5042185;28;1539;-63
2021/10/01 02:40:51;;;;;;;;;;;;;;;20.92;58.07;102148.09;5026068;28;1985;-58
2021/10/01 02:43:18;;;;;;;;;;;;;;;20.92;58.33;102158.00;5028656;28;1426;-57
2021/10/01 02:45:44;;;;;;;;;;;;;;;20.94;58.15;102150.66;5041982;28;1662;-63
2021/10/01 02:48:11;;;;;;;;;;;;;;;20.95;58.93;102144.31;5022905;28;1570;-63
2021/10/01 02:50:39;;;;;;;;;;;;;;;20.93;58.92;102148.94;5014641;28;1024;-57
2021/10/01 02:53:13;;;;;;;;;;;;;;;20.92;58.30;102150.78;5017558;28;1556;-63
2021/10/01 02:55:41;;;;;;;;;;;;;;;20.94;57.88;102156.03;5025986;28;1413;-58
2021/10/01 02:58:11;;;;;;;;;;;;;;;20.93;58.90;102147.13;5025024;28;1581;-57
2021/10/01 03:00:38;;;;;;;;;;;;;;;20.92;58.26;102149.94;5023901;28;1914;-63
2021/10/01 03:03:07;;;;;;;;;;;;;;;20.93;58.41;102157.88;5022956;28;1499;-63
2021/10/01 03:05:34;;;;;;;;;;;;;;;20.92;58.26;102149.94;5022645;28;1536;-58
2021/10/01 03:08:01;;;;;;;;;;;;;;;20.90;57.92;102151.88;5036142;28;1456;-63
2021/10/01 03:10:28;;;;;;;;;;;;;;;20.90;58.52;102150.03;5040994;28;1455;-57
2021/10/01 03:12:55;;;;;;;;;;;;;;;20.94;58.84;102159.59;5023571;28;1432;-58
2021/10/01 03:15:24;;;;;;;;;;;;;;;20.91;58.42;102132.06;5049505;28;991;-63
2021/10/01 03:17:50;;;;;;;;;;;;;;;20.93;58.03;102163.25;5043938;28;1770;-63
2021/10/01 03:20:17;;;;;;;;;;;;;;;20.91;58.32;102165.22;5027062;28;1910;-57
2021/10/01 03:22:44;;;;;;;;;;;;;;;20.90;58.24;102154.56;5042236;28;1361;-63
2021/10/01 03:25:12;;;;;;;;;;;;;;;20.88;57.79;102151.97;5036719;28;1597;-63
2021/10/01 03:27:39;;;;;;;;;;;;;;;20.89;58.08;102151.03;5023492;28;1057;-63
2021/10/01 03:30:07;;;;;;;;;;;;;;;20.88;58.85;102143.91;5044611;28;1498;-58
2021/10/01 03:32:36;;;;;;;;;;;;;;;20.91;58.62;102148.19;5044498;28;1607;-63
2021/10/01 03:35:04;;;;;;;;;;;;;;;20.87;58.68;102142.22;5023844;28;1538;-58
2021/10/01 03:37:31;;;;;;;;;;;;;;;20.88;57.56;102149.28;5015811;28;1653;-58
2021/10/01 03:39:58;;;;;;;;;;;;;;;20.88;58.70;102149.28;5014192;28;1107;-58
2021/10/01 03:42:25;;;;;;;;;;;;;;;20.90;58.31;102138.44;5025344;28;2291;-58
2021/10/01 03:44:52;;;;;;;;;;;;;;;20.91;58.26;102169.72;5019706;28;1736;-58
2021/10/01 03:47:19;;;;;;;;;;;;;;;20.87;58.09;102163.72;5042101;28;1627;-58
2021/10/01 03:49:47;;;;;;;;;;;;;;;20.88;58.87;102154.66;5041265;28;1568;-58
2021/10/01 03:52:14;;;;;;;;;;;;;;;20.91;57.71;102159.84;5049064;28;1051;-62
2021/10/01 03:54:42;;;;;;;;;;;;;;;20.87;58.27;102163.72;5046327;28;1651;-58
2021/10/01 03:57:09;;;;;;;;;;;;;;;20.85;57.78;102155.75;5023421;28;1774;-63
2021/10/01 03:59:36;;;;;;;;;;;;;;;20.90;58.39;102166.16;5040867;28;1592;-63
2021/10/01 04:02:02;;;;;;;;;;;;;;;20.85;58.68;102171.91;5044857;28;1942;-63
2021/10/01 04:04:30;;;;;;;;;;;;;;;20.86;58.83;102167.38;5036570;28;1568;-60
2021/10/01 04:06:57;;;;;;;;;;;;;;;20.83;58.53;102156.81;5033328;28;1393;-63
2021/10/01 04:09:24;;;;;;;;;;;;;;;20.85;58.69;102160.28;5046912;28;1503;-58
2021/10/01 04:11:53;;;;;;;;;;;;;;;20.85;58.79;102176.44;5046442;28;1866;-58
2021/10/01 04:14:20;;;;;;;;;;;;;;;20.85;58.45;102171.91;5031356;28;1660;-58
2021/10/01 04:16:46;;;;;;;;;;;;;;;20.85;58.03;102168.34;5020219;28;1057;-63
2021/10/01 04:19:13;;;;;;;;;;;;;;;20.86;58.34;102180.81;5045753;28;1752;-58
2021/10/01 04:21:40;;;;;;;;;;;;;;;20.83;58.58;102197.16;5046388;28;1914;-58
2021/10/01 04:24:08;;;;;;;;;;;;;;;20.86;57.68;102189.72;5043322;28;1635;-58
2021/10/01 04:26:34;;;;;;;;;;;;;;;20.82;58.40;102190.09;5045088;28;1569;-63
2021/10/01 04:29:01;;;;;;;;;;;;;;;20.83;57.48;102178.34;5045528;28;1467;-58
2021/10/01 04:31:28;;;;;;;;;;;;;;;20.85;57.74;102196.09;5041530;28;1636;-63
2021/10/01 04:33:54;;;;;;;;;;;;;;;20.83;58.50;102194.47;5024452;28;1573;-63
2021/10/01 04:36:22;;;;;;;;;;;;;;;20.86;57.60;102197.78;5025996;28;1036;-63
2021/10/01 04:38:49;;;;;;;;;;;;;;;20.85;57.61;102193.41;5022783;28;1748;-58
2021/10/01 04:41:16;;;;;;;;;;;;;;;20.86;58.22;102205.00;5031551;28;1910;-63
2021/10/01 04:43:43;;;;;;;;;;;;;;;20.83;58.43;102199.84;5040092;28;1624;-58
2021/10/01 04:46:10;;;;;;;;;;;;;;;20.85;58.18;102214.06;5032792;28;1629;-63
2021/10/01 04:48:37;;;;;;;;;;;;;;;20.83;58.26;102208.78;5046583;28;1475;-64
2021/10/01 04:51:03;;;;;;;;;;;;;;;20.86;57.67;102207.69;5045894;28;910;-58
2021/10/01 04:53:30;;;;;;;;;;;;;;;20.85;57.85;102208.69;5037648;28;1759;-63
2021/10/01 04:55:56;;;;;;;;;;;;;;;20.82;58.55;102206.22;5041972;28;1659;-58
2021/10/01 04:58:24;;;;;;;;;;;;;;;20.84;57.42;102205.13;5031820;28;1515;-58
2021/10/01 05:00:51;;;;;;;;;;;;;;;20.83;57.89;102189.97;5045529;28;1985;-57
2021/10/01 05:03:17;;;;;;;;;;;;;;;20.84;57.56;102212.34;5045454;28;1476;-58
2021/10/01 05:05:44;;;;;;;;;;;;;;;20.83;58.29;102215.97;5025552;28;1048;-63
2021/10/01 05:08:10;;;;;;;;;;;;;;;20.82;58.02;102201.69;5037738;28;1486;-58
2021/10/01 05:10:37;;;;;;;;;;;;;;;20.87;57.36;102209.44;5041121;28;1878;-58
2021/10/01 05:13:03;;;;;;;;;;;;;;;20.83;57.83;102200.72;5026189;28;1701;-58
2021/10/01 05:15:31;;;;;;;;;;;;;;;20.85;57.96;102214.06;5016401;28;1044;-57
2021/10/01 05:17:59;;;;;;;;;;;;;;;20.87;58.58;102206.75;5026185;28;1505;-63
2021/10/01 05:20:25;;;;;;;;;;;;;;;20.88;58.45;102212.97;5041488;28;1616;-58
2021/10/01 05:22:52;;;;;;;;;;;;;;;20.87;57.77;102217.50;5025437;28;2044;-63
2021/10/01 05:25:19;;;;;;;;;;;;;;;20.89;58.04;102210.19;5025768;28;1535;-58
2021/10/01 05:27:45;;;;;;;;;;;;;;;20.92;57.95;102226.06;5027247;28;1162;-58
2021/10/01 05:30:12;;;;;;;;;;;;;;;20.90;58.24;102217.25;5045815;28;1697;-58
2021/10/01 05:32:40;;;;;;;;;;;;;;;20.94;57.90;102221.44;5023814;28;1727;-63
2021/10/01 05:35:07;;;;;;;;;;;;;;;21.01;57.97;102224.56;5029204;28;1591;-63
2021/10/01 05:37:33;;;;;;;;;;;;;;;20.98;58.25;102230.16;5017152;28;1620;-63
2021/10/01 05:40:00;;;;;;;;;;;;;;;20.99;57.17;102207.63;5016370;28;986;-63
2021/10/01 05:42:27;;;;;;;;;;;;;;;21.01;57.34;102222.72;5022777;28;1910;-58
2021/10/01 05:44:53;;;;;;;;;;;;;;;21.05;57.38;102226.03;5023852;28;1744;-63
2021/10/01 05:47:20;;;;;;;;;;;;;;;21.09;57.85;102216.78;5025343;28;1628;-63
2021/10/01 05:49:48;;;;;;;;;;;;;;;21.12;57.19;102221.91;5039582;28;1596;-58
2021/10/01 05:52:22;;;;;;;;;;;;;;;21.22;56.82;102220.25;5039665;28;1057;-58
2021/10/01 05:54:49;;;;;;;;;;;;;;;21.24;56.86;102225.50;5046546;28;1751;-58
2021/10/01 05:57:16;;;;;;;;;;;;;;;21.21;57.28;102225.75;5027714;28;1817;-59
2021/10/01 05:59:45;;;;;;;;;;;;;;;21.24;56.80;102230.91;5043224;28;1447;-58
2021/10/01 06:02:12;;;;;;;;;;;;;;;21.26;57.33;102240.56;5042436;28;1910;-58
2021/10/01 06:04:39;;;;;;;;;;;;;;;21.27;57.16;102230.69;5031653;28;1596;-59
2021/10/01 06:07:07;;;;;;;;;;;;;;;21.24;57.78;102234.44;5030404;28;1877;-58
2021/10/01 06:09:34;;;;;;;;;;;;;;;21.27;57.81;102238.75;5023213;28;1619;-58
2021/10/01 06:12:01;;;;;;;;;;;;;;;21.25;57.02;102238.00;5028791;28;1635;-59
2021/10/01 06:14:28;;;;;;;;;;;;;;;21.25;57.78;102246.94;5036691;28;1420;-63
2021/10/01 06:16:54;;;;;;;;;;;;;;;21.25;57.16;102244.25;5039445;28;1026;-63
2021/10/01 06:19:22;;;;;;;;;;;;;;;21.28;57.21;102243.16;5045298;28;1711;-58
2021/10/01 06:21:49;;;;;;;;;;;;;;;21.31;56.79;102237.53;5028541;28;1906;-58
2021/10/01 06:24:17;;;;;;;;;;;;;;;21.31;56.81;102225.91;5035627;28;1868;-57
2021/10/01 06:26:43;;;;;;;;;;;;;;;21.33;57.65;102224.84;5031352;28;1594;-63
2021/10/01 06:29:10;;;;;;;;;;;;;;;21.33;57.26;102227.53;5024636;28;1511;-57
2021/10/01 06:31:36;;;;;;;;;;;;;;;21.39;57.25;102234.28;5030492;28;1626;-62
2021/10/01 06:34:03;;;;;;;;;;;;;;;21.38;56.85;102228.03;5044995;28;1651;-58
2021/10/01 06:36:29;;;;;;;;;;;;;;;21.40;57.27;102242.22;5043625;28;1115;-62
2021/10/01 06:38:56;;;;;;;;;;;;;;;21.35;56.91;102230.97;5028832;28;1567;-63
2021/10/01 06:41:24;;;;;;;;;;;;;;;21.37;57.08;102242.47;5025694;28;1972;-63
2021/10/01 06:43:57;;;;;;;;;;;;;;;21.36;57.12;102234.50;5029645;28;1663;-57
2021/10/01 06:46:26;;;;;;;;;;;;;;;21.32;57.57;102236.56;5032045;28;1539;-58
2021/10/01 06:49:02;;;;;;;;;;;;;;;21.34;57.66;102245.38;5045484;28;1600;-57
2021/10/01 06:51:47;;;;;;;;;;;;;;;21.35;57.55;102228.28;5043581;28;1090;-58
2021/10/01 08:19:23;;;;;;;;;;;;;;;21.47;57.21;102210.38;5047136;28;1487;-58
2021/10/01 08:21:50;;;;;;;;;;;;;;;21.47;57.13;102206.78;5025301;28;1910;-63
2021/10/01 08:24:16;;;;;;;;;;;;;;;21.50;57.18;102210.13;5044172;28;1512;-57
2021/10/01 08:26:44;;;;;;;;;;;;;;;21.50;57.99;102203.88;5033371;28;1589;-62
2021/10/01 08:29:11;;;;;;;;;;;;;;;21.52;57.34;102207.31;5035973;28;1505;-63
2021/10/01 08:31:37;;;;;;;;;;;;;;;21.50;58.06;102198.50;5037064;28;1648;-63
2021/10/01 08:34:04;;;;;;;;;;;;;;;21.52;57.87;102207.31;5029591;28;1656;-58
2021/10/01 08:36:32;;;;;;;;;;;;;;;21.51;57.53;102206.47;5028160;28;1047;-63
2021/10/01 08:38:58;;;;;;;;;;;;;;;21.50;57.24;102198.50;5042112;28;1430;-58
2021/10/01 08:41:25;;;;;;;;;;;;;;;21.52;57.23;102199.25;5043529;28;1557;-57
2021/10/01 08:43:52;;;;;;;;;;;;;;;21.54;57.50;102205.38;5042654;28;1903;-58
2021/10/01 08:46:18;;;;;;;;;;;;;;;21.53;57.43;102195.59;5033208;28;1515;-57
2021/10/01 08:48:45;;;;;;;;;;;;;;;21.51;57.28;102192.16;5046737;28;1495;-62
2021/10/01 08:51:13;;;;;;;;;;;;;;;21.51;57.99;102190.31;5045627;28;1075;-63
2021/10/01 08:53:41;;;;;;;;;;;;;;;21.53;57.78;102192.91;5041161;28;1500;-58
2021/10/01 08:56:07;;;;;;;;;;;;;;;21.52;57.52;102185.78;5042140;28;1644;-63
2021/10/01 08:58:34;;;;;;;;;;;;;;;21.52;58.01;102188.47;5040323;28;1879;-63
2021/10/01 09:01:01;;;;;;;;;;;;;;;21.52;58.09;102186.63;5031063;28;1787;-58
2021/10/01 09:03:28;;;;;;;;;;;;;;;21.57;57.66;102186.31;5040394;28;1989;-63
2021/10/01 09:05:55;;;;;;;;;;;;;;;21.55;57.80;102172.97;5046869;28;1016;-63
2021/10/01 09:08:23;;;;;;;;;;;;;;;21.53;57.52;102174.91;5037361;28;1519;-58
2021/10/01 09:11:02;;;;;;;;;;;;;;;21.53;57.43;102179.44;5042299;28;1592;-63
2021/10/01 09:13:29;;;;;;;;;;;;;;;21.55;57.90;102183.72;5024086;28;1570;-58
2021/10/01 09:15:59;;;;;;;;;;;;;;;21.54;57.72;102178.44;5027903;28;977;-63
2021/10/01 09:18:26;;;;;;;;;;;;;;;21.55;57.90;102169.41;5040580;28;1684;-58
2021/10/01 09:21:03;;;;;;;;;;;;;;;21.51;57.38;102167.94;5035816;28;1742;-63
2021/10/01 09:23:29;;;;;;;;;;;;;;;21.50;57.50;102156.28;5026925;28;1909;-58
2021/10/01 09:26:07;;;;;;;;;;;;;;;21.51;58.11;102157.16;5023163;28;1467;-58
2021/10/01 09:28:43;;;;;;;;;;;;;;;21.52;57.39;102142.72;5031832;28;1479;-63
2021/10/01 09:31:15;;;;;;;;;;;;;;;21.51;57.54;102151.78;5045986;28;1452;-63
2021/10/01 09:33:43;;;;;;;;;;;;;;;21.58;58.22;102169.16;5041709;28;1576;-58
2021/10/01 09:36:10;;;;;;;;;;;;;;;21.60;57.12;102159.13;5027601;28;1065;-58
2021/10/01 09:38:37;;;;;;;;;;;;;;;21.58;57.30;102153.00;5037466;28;1981;-63
2021/10/01 09:41:16;;;;;;;;;;;;;;;21.56;57.27;102144.19;5040050;28;1562;-58
2021/10/01 09:43:42;;;;;;;;;;;;;;;21.60;57.63;102161.81;5023273;28;1906;-63
2021/10/01 09:46:12;;;;;;;;;;;;;;;21.57;57.19;102152.16;5036066;28;1644;-63
2021/10/01 09:48:40;;;;;;;;;;;;;;;21.61;57.50;102144.72;5041673;28;1593;-63
2021/10/01 09:51:08;;;;;;;;;;;;;;;21.61;57.70;102142.03;5016116;28;1052;-58
2021/10/01 09:53:41;;;;;;;;;;;;;;;21.60;57.82;102149.22;5026432;28;1751;-58
2021/10/01 09:56:20;;;;;;;;;;;;;;;21.60;57.94;102138.44;5043932;28;1534;-58
2021/10/01 09:59:03;;;;;;;;;;;;;;;21.61;57.80;102131.25;5033693;28;1599;-63
2021/10/01 10:01:29;;;;;;;;;;;;;;;21.63;57.15;102135.53;5028532;28;1491;-58
2021/10/01 10:03:56;;;;;;;;;;;;;;;21.62;57.62;102132.94;5023019;28;1970;-63
2021/10/01 10:06:22;;;;;;;;;;;;;;;21.64;56.86;102133.69;5026845;28;1091;-63
2021/10/01 10:08:49;;;;;;;;;;;;;;;21.61;57.36;102137.47;5038499;28;1476;-63
2021/10/01 10:11:19;;;;;;;;;;;;;;;21.58;57.78;102118.88;5041813;28;1090;-63
2021/10/01 10:13:47;;;;;;;;;;;;;;;21.56;57.66;102133.44;5046304;28;1483;-63
2021/10/01 10:16:14;;;;;;;;;;;;;;;21.61;57.82;102139.31;5047974;28;1727;-63
2021/10/01 10:18:41;;;;;;;;;;;;;;;21.56;57.57;102125.34;5026531;28;1565;-63
2021/10/01 10:21:08;;;;;;;;;;;;;;;21.60;57.28;102126.81;5024816;28;1641;-58
2021/10/01 10:23:35;;;;;;;;;;;;;;;21.64;57.62;102131.00;5031686;28;1910;-63
2021/10/01 10:26:02;;;;;;;;;;;;;;;21.62;57.78;102127.56;5044410;28;1483;-58
2021/10/01 10:28:33;;;;;;;;;;;;;;;21.59;57.44;102122.44;5040582;28;1559;-63
2021/10/01 10:30:59;;;;;;;;;;;;;;;21.56;57.52;102128.91;5024687;28;1628;-58
2021/10/01 10:33:39;;;;;;;;;;;;;;;21.55;58.17;102132.59;5024969;28;1574;-58
2021/10/01 10:36:21;;;;;;;;;;;;;;;21.55;57.94;102119.13;5028105;28;1078;-58
2021/10/01 10:38:47;;;;;;;;;;;;;;;21.53;57.75;102128.31;5028471;28;1503;-63
2021/10/01 10:41:21;;;;;;;;;;;;;;;21.58;58.00;102128.78;5038197;28;1880;-63
2021/10/01 10:43:49;;;;;;;;;;;;;;;21.57;58.00;102114.47;5024245;28;1906;-63
2021/10/01 10:46:31;;;;;;;;;;;;;;;21.54;58.03;102114.69;5028219;28;1480;-58
2021/10/01 10:49:12;;;;;;;;;;;;;;;21.53;58.03;102118.38;5044478;28;1763;-59
2021/10/01 10:51:53;;;;;;;;;;;;;;;21.47;57.61;102109.91;5037365;28;1666;-58
2021/10/01 10:54:20;;;;;;;;;;;;;;;21.51;57.80;102125.72;5032856;28;1735;-58
2021/10/01 10:56:46;;;;;;;;;;;;;;;21.49;57.62;102089.13;5035901;28;1635;-63
2021/10/01 10:59:28;;;;;;;;;;;;;;;21.51;57.68;102108.72;5032423;28;1867;-58
2021/10/01 11:02:15;;;;;;;;;;;;;;;21.55;57.77;102083.28;5023870;28;1668;-63
2021/10/01 11:04:42;;;;;;;;;;;;;;;21.56;58.31;102090.38;5035143;28;1902;-63
2021/10/01 11:07:10;;;;;;;;;;;;;;;21.57;57.53;102092.09;5039464;28;1036;-63
2021/10/01 11:09:38;;;;;;;;;;;;;;;21.56;57.91;102090.38;5045097;28;1580;-63
2021/10/01 11:12:19;;;;;;;;;;;;;;;21.52;58.27;102091.59;5024183;28;1807;-63
2021/10/01 11:14:47;;;;;;;;;;;;;;;21.53;57.70;102085.22;5043326;28;1756;-61
2021/10/01 11:17:19;;;;;;;;;;;;;;;21.53;58.05;102091.47;5037174;28;1346;-63
2021/10/01 11:19:47;;;;;;;;;;;;;;;21.51;57.58;102097.97;5027727;28;1518;-63
2021/10/01 11:22:27;;;;;;;;;;;;;;;21.49;58.62;102081.03;5048665;28;1020;-58
2021/10/01 11:24:56;;;;;;;;;;;;;;;21.53;58.05;102101.38;5026052;28;1973;-58
2021/10/01 11:27:22;;;;;;;;;;;;;;;21.47;57.72;102075.81;5031680;28;1746;-58
2021/10/01 11:29:50;;;;;;;;;;;;;;;21.51;58.06;102081.81;5024269;28;1673;-58
2021/10/01 11:32:18;;;;;;;;;;;;;;;21.48;57.81;102071.28;5044513;28;1671;-58
2021/10/01 11:34:47;;;;;;;;;;;;;;;21.49;58.30;102052.31;5046795;28;1547;-61
2021/10/01 11:37:20;;;;;;;;;;;;;;;21.50;57.78;102058.53;5042426;28;1056;-63
2021/10/01 11:39:47;;;;;;;;;;;;;;;21.58;58.26;102066.88;5048350;28;1399;-57
2021/10/01 11:42:20;;;;;;;;;;;;;;;21.56;58.37;102063.44;5031909;28;1787;-63
2021/10/01 11:44:47;;;;;;;;;;;;;;;21.57;57.79;102062.47;5043490;28;1910;-58
2021/10/01 11:47:15;;;;;;;;;;;;;;;21.50;57.68;102055.84;5030402;28;1572;-63
2021/10/01 11:49:42;;;;;;;;;;;;;;;21.49;57.73;102062.19;5028287;28;1640;-63
2021/10/01 11:52:12;;;;;;;;;;;;;;;21.48;57.82;102071.28;5033386;28;1027;-63
2021/10/01 11:54:48;;;;;;;;;;;;;;;21.48;58.04;102064.03;5025426;28;1736;-63
2021/10/01 11:57:15;;;;;;;;;;;;;;;21.49;57.73;102059.50;5047697;28;1688;-57
2021/10/01 11:59:49;;;;;;;;;;;;;;;21.49;58.18;102046.06;5045642;28;1551;-63
2021/10/01 12:02:27;;;;;;;;;;;;;;;21.47;58.10;102053.38;5045846;28;1653;-63
2021/10/01 12:04:53;;;;;;;;;;;;;;;21.49;57.94;102051.44;5029951;28;1914;-58
2021/10/01 12:07:20;;;;;;;;;;;;;;;21.47;58.17;102062.34;5034426;28;1064;-58
2021/10/01 12:10:00;;;;;;;;;;;;;;;21.48;57.80;102050.59;5029845;28;1688;-58
2021/10/01 12:12:27;;;;;;;;;;;;;;;21.51;57.60;102038.75;5029320;28;1531;-63
2021/10/01 12:14:54;;;;;;;;;;;;;;;21.53;57.69;102050.25;5043654;28;1607;-58
2021/10/01 12:17:20;;;;;;;;;;;;;;;21.57;57.93;102071.41;5046344;28;1432;-63
2021/10/01 12:19:48;;;;;;;;;;;;;;;21.53;57.75;102028.72;5046235;28;1562;-58
2021/10/01 12:22:16;;;;;;;;;;;;;;;21.54;58.25;102033.09;5046833;28;1007;-57
2021/10/01 12:24:43;;;;;;;;;;;;;;;21.54;57.75;102033.94;5024847;28;1969;-62
2021/10/01 12:27:10;;;;;;;;;;;;;;;21.60;57.94;102029.91;5031221;28;1716;-58
2021/10/01 12:29:42;;;;;;;;;;;;;;;21.57;57.51;102027.50;5040086;28;1578;-57
2021/10/01 12:32:08;;;;;;;;;;;;;;;21.54;58.44;102033.09;5045563;28;1511;-63
2021/10/01 12:34:36;;;;;;;;;;;;;;;21.54;57.56;102035.78;5045446;28;1640;-58
2021/10/01 12:37:05;;;;;;;;;;;;;;;21.55;58.29;102024.06;5042771;28;1064;-63
2021/10/01 12:39:33;;;;;;;;;;;;;;;21.51;58.11;102012.69;5030878;28;1796;-63
2021/10/01 12:42:00;;;;;;;;;;;;;;;21.54;58.31;102054.63;5040285;28;1573;-58
2021/10/01 12:44:27;;;;;;;;;;;;;;;21.48;57.76;102036.28;5044492;28;1985;-58
2021/10/01 12:46:55;;;;;;;;;;;;;;;21.49;58.21;102021.84;5034575;28;1585;-63
2021/10/01 12:49:26;;;;;;;;;;;;;;;21.50;57.80;102026.25;5034541;28;1527;-58
2021/10/01 12:52:04;;;;;;;;;;;;;;;21.50;57.81;102004.72;5043914;28;1047;-63
2021/10/01 12:54:32;;;;;;;;;;;;;;;21.50;58.68;102016.34;5045698;28;1670;-59
2021/10/01 12:57:08;;;;;;;;;;;;;;;21.48;58.37;102006.69;5027974;28;1643;-58
2021/10/01 12:59:39;;;;;;;;;;;;;;;21.49;58.41;102021.84;5029637;28;1623;-63
2021/10/01 13:02:06;;;;;;;;;;;;;;;21.47;57.90;102013.03;5026006;28;1628;-58
2021/10/01 13:04:44;;;;;;;;;;;;;;;21.44;57.95;102012.28;5026033;28;1910;-58
2021/10/01 13:07:21;;;;;;;;;;;;;;;21.44;58.29;102014.97;5032159;28;1024;-58
2021/10/01 13:09:48;;;;;;;;;;;;;;;21.45;57.90;102035.53;5024287;28;1688;-63
2021/10/01 13:12:26;;;;;;;;;;;;;;;21.48;57.95;102004.84;5046493;28;1571;-63
2021/10/01 13:15:07;;;;;;;;;;;;;;;21.47;58.15;102004.94;5042162;28;1563;-57
2021/10/01 13:17:33;;;;;;;;;;;;;;;21.52;58.68;102013.53;5022374;28;1522;-58
2021/10/01 13:20:01;;;;;;;;;;;;;;;21.53;58.48;102020.63;5044883;28;1632;-58
2021/10/01 13:22:52;;;;;;;;;;;;;;;21.47;58.07;101972.66;5046378;28;978;-63
2021/10/01 13:25:22;;;;;;;;;;;;;;;21.53;58.26;101993.72;5042755;28;1914;-58
2021/10/01 13:27:49;;;;;;;;;;;;;;;21.49;57.74;101990.41;5016707;28;987;-58
2021/10/01 13:30:16;;;;;;;;;;;;;;;21.50;58.26;101972.41;5023615;28;1960;-58
2021/10/01 13:32:43;;;;;;;;;;;;;;;21.48;58.17;101958.22;5044397;28;1715;-63
2021/10/01 13:35:11;;;;;;;;;;;;;;;21.50;58.36;101984.03;5034861;28;1525;-58
2021/10/01 13:37:39;;;;;;;;;;;;;;;21.48;58.57;101993.22;5032077;28;1515;-58
2021/10/01 13:40:07;;;;;;;;;;;;;;;21.44;58.25;101980.00;5041910;28;1138;-63
2021/10/01 13:42:33;;;;;;;;;;;;;;;21.47;58.30;101983.41;5038407;28;1569;-63
2021/10/01 13:45:00;;;;;;;;;;;;;;;21.50;58.32;101975.13;5039701;28;1967;-58
2021/10/01 13:47:26;;;;;;;;;;;;;;;21.47;58.45;101988.81;5040182;28;1582;-58
2021/10/01 13:49:53;;;;;;;;;;;;;;;21.43;58.58;101978.31;5046716;28;1592;-63
2021/10/01 13:52:20;;;;;;;;;;;;;;;21.47;57.90;101975.34;5038803;28;1031;-58
2021/10/01 13:54:47;;;;;;;;;;;;;;;21.48;58.51;101974.38;5027720;28;1834;-58
2021/10/01 13:57:14;;;;;;;;;;;;;;;21.45;58.12;101981.72;5026093;28;1588;-62
2021/10/01 13:59:42;;;;;;;;;;;;;;;21.42;58.02;101979.22;5021396;28;1597;-63
2021/10/01 14:02:09;;;;;;;;;;;;;;;21.43;57.92;101972.91;5028999;28;1535;-58
2021/10/01 14:04:35;;;;;;;;;;;;;;;21.45;59.01;101980.88;5028757;28;2001;-63
2021/10/01 14:07:02;;;;;;;;;;;;;;;21.47;58.67;101961.88;5043652;28;1317;-63
2021/10/01 14:09:29;;;;;;;;;;;;;;;21.44;58.30;101969.22;5024830;28;1711;-57
2021/10/01 14:11:57;;;;;;;;;;;;;;;21.43;58.75;101961.31;5034528;28;1483;-57
2021/10/01 14:14:24;;;;;;;;;;;;;;;21.47;58.80;101978.91;5041326;28;1440;-58
2021/10/01 14:16:50;;;;;;;;;;;;;;;21.42;57.94;101960.38;5045978;28;1068;-61
2021/10/01 14:19:17;;;;;;;;;;;;;;;21.43;57.80;101943.31;5026487;28;1712;-58
2021/10/01 14:21:44;;;;;;;;;;;;;;;21.45;57.77;101948.56;5020272;28;1479;-63
2021/10/01 14:24:11;;;;;;;;;;;;;;;21.43;58.00;101939.78;5036576;28;1910;-62